Terminal Aerodrome Forecast
Issued by NWS Goodland, KS

Home | Current Version | Previous Version | Text Only | Print | Product List | Glossary On
Versions: 1 2 3 4 5 6 7 8 9 10 11 12 13 14
000
FTUS43 KGLD 212339
TAFGLD
TAF
KGLD 212339Z 2200/2224 18008KT P6SM SCT120
     FM220300 30013KT P6SM SCT120 SCT200
     FM221500 36010KT P6SM SCT200
     FM222000 05008KT P6SM SCT100 SCT200=

USA.gov is the U.S. government's official web portal to all federal, state and local government web resources and services.